sensor_id;sensor_type;location;lat;lon;timestamp;P1;durP1;ratioP1;P2;durP2;ratioP2
20462;SDS011;10390;53.566;9.980;2023-11-19T00:02:18;10.02;;;8.45;;
20462;SDS011;10390;53.566;9.980;2023-11-19T00:04:44;9.80;;;8.20;;
20462;SDS011;10390;53.566;9.980;2023-11-19T00:07:10;10.13;;;8.35;;
20462;SDS011;10390;53.566;9.980;2023-11-19T00:09:37;10.60;;;8.25;;
20462;SDS011;10390;53.566;9.980;2023-11-19T00:12:04;10.15;;;8.75;;
20462;SDS011;10390;53.566;9.980;2023-11-19T00:14:30;11.45;;;8.75;;
20462;SDS011;10390;53.566;9.980;2023-11-19T00:16:56;10.35;;;8.25;;
20462;SDS011;10390;53.566;9.980;2023-11-19T00:19:22;11.18;;;9.40;;
20462;SDS011;10390;53.566;9.980;2023-11-19T00:21:47;11.18;;;8.73;;
20462;SDS011;10390;53.566;9.980;2023-11-19T00:24:13;9.05;;;7.75;;
20462;SDS011;10390;53.566;9.980;2023-11-19T00:26:41;10.98;;;8.80;;
20462;SDS011;10390;53.566;9.980;2023-11-19T00:29:07;11.93;;;9.13;;
20462;SDS011;10390;53.566;9.980;2023-11-19T00:31:33;11.68;;;9.75;;
20462;SDS011;10390;53.566;9.980;2023-11-19T00:34:00;12.27;;;9.60;;
20462;SDS011;10390;53.566;9.980;2023-11-19T00:36:26;10.20;;;8.70;;
20462;SDS011;10390;53.566;9.980;2023-11-19T00:38:53;11.75;;;9.15;;
20462;SDS011;10390;53.566;9.980;2023-11-19T00:41:18;10.45;;;8.98;;
20462;SDS011;10390;53.566;9.980;2023-11-19T00:43:44;11.52;;;8.93;;
20462;SDS011;10390;53.566;9.980;2023-11-19T00:46:10;10.75;;;8.63;;
20462;SDS011;10390;53.566;9.980;2023-11-19T00:48:41;10.15;;;7.88;;
20462;SDS011;10390;53.566;9.980;2023-11-19T00:51:07;11.43;;;8.43;;
20462;SDS011;10390;53.566;9.980;2023-11-19T00:53:33;10.50;;;8.52;;
20462;SDS011;10390;53.566;9.980;2023-11-19T00:55:59;11.27;;;8.73;;
20462;SDS011;10390;53.566;9.980;2023-11-19T00:58:25;9.63;;;8.00;;
20462;SDS011;10390;53.566;9.980;2023-11-19T01:00:51;9.88;;;8.05;;
20462;SDS011;10390;53.566;9.980;2023-11-19T01:03:16;11.40;;;8.25;;
20462;SDS011;10390;53.566;9.980;2023-11-19T01:05:42;11.75;;;8.65;;
20462;SDS011;10390;53.566;9.980;2023-11-19T01:08:09;9.60;;;7.68;;
20462;SDS011;10390;53.566;9.980;2023-11-19T01:10:36;9.18;;;7.80;;
20462;SDS011;10390;53.566;9.980;2023-11-19T01:13:02;9.35;;;7.90;;
20462;SDS011;10390;53.566;9.980;2023-11-19T01:15:30;9.13;;;7.85;;
20462;SDS011;10390;53.566;9.980;2023-11-19T01:17:56;10.48;;;8.13;;
20462;SDS011;10390;53.566;9.980;2023-11-19T01:20:22;9.48;;;7.93;;
20462;SDS011;10390;53.566;9.980;2023-11-19T01:22:49;9.05;;;7.68;;
20462;SDS011;10390;53.566;9.980;2023-11-19T01:25:15;9.85;;;8.10;;
20462;SDS011;10390;53.566;9.980;2023-11-19T01:27:41;10.30;;;8.32;;
20462;SDS011;10390;53.566;9.980;2023-11-19T01:30:07;9.32;;;8.07;;
20462;SDS011;10390;53.566;9.980;2023-11-19T01:32:34;9.43;;;7.97;;
20462;SDS011;10390;53.566;9.980;2023-11-19T01:35:01;9.50;;;7.63;;
20462;SDS011;10390;53.566;9.980;2023-11-19T01:37:28;9.70;;;8.25;;
20462;SDS011;10390;53.566;9.980;2023-11-19T01:39:54;9.02;;;7.82;;
20462;SDS011;10390;53.566;9.980;2023-11-19T01:42:19;10.07;;;7.75;;
20462;SDS011;10390;53.566;9.980;2023-11-19T01:44:54;8.98;;;7.63;;
20462;SDS011;10390;53.566;9.980;2023-11-19T01:47:24;9.68;;;7.95;;
20462;SDS011;10390;53.566;9.980;2023-11-19T01:49:51;9.55;;;7.80;;
20462;SDS011;10390;53.566;9.980;2023-11-19T01:52:17;9.13;;;7.85;;
20462;SDS011;10390;53.566;9.980;2023-11-19T01:54:44;9.00;;;7.68;;
20462;SDS011;10390;53.566;9.980;2023-11-19T01:57:10;8.85;;;7.43;;
20462;SDS011;10390;53.566;9.980;2023-11-19T01:59:36;8.95;;;7.40;;
20462;SDS011;10390;53.566;9.980;2023-11-19T02:02:01;10.60;;;7.28;;
20462;SDS011;10390;53.566;9.980;2023-11-19T02:04:27;9.70;;;7.97;;
20462;SDS011;10390;53.566;9.980;2023-11-19T02:06:53;8.98;;;7.72;;
20462;SDS011;10390;53.566;9.980;2023-11-19T02:09:23;9.07;;;7.32;;
20462;SDS011;10390;53.566;9.980;2023-11-19T02:11:48;8.88;;;7.40;;
20462;SDS011;10390;53.566;9.980;2023-11-19T02:14:16;8.95;;;7.85;;
20462;SDS011;10390;53.566;9.980;2023-11-19T02:16:42;8.50;;;7.00;;
20462;SDS011;10390;53.566;9.980;2023-11-19T02:19:08;8.73;;;7.07;;
20462;SDS011;10390;53.566;9.980;2023-11-19T02:21:36;8.07;;;7.05;;
20462;SDS011;10390;53.566;9.980;2023-11-19T02:24:05;8.07;;;7.22;;
20462;SDS011;10390;53.566;9.980;2023-11-19T02:26:40;9.13;;;7.63;;
20462;SDS011;10390;53.566;9.980;2023-11-19T02:29:07;7.97;;;6.82;;
20462;SDS011;10390;53.566;9.980;2023-11-19T02:31:33;8.48;;;6.80;;
20462;SDS011;10390;53.566;9.980;2023-11-19T02:34:00;8.18;;;6.90;;
20462;SDS011;10390;53.566;9.980;2023-11-19T02:36:27;8.15;;;7.07;;
20462;SDS011;10390;53.566;9.980;2023-11-19T02:38:53;8.20;;;6.65;;
20462;SDS011;10390;53.566;9.980;2023-11-19T02:41:18;8.05;;;7.13;;
20462;SDS011;10390;53.566;9.980;2023-11-19T02:43:44;7.63;;;6.78;;
20462;SDS011;10390;53.566;9.980;2023-11-19T02:46:09;8.10;;;6.75;;
20462;SDS011;10390;53.566;9.980;2023-11-19T02:48:36;8.85;;;6.70;;
20462;SDS011;10390;53.566;9.980;2023-11-19T02:51:02;7.53;;;6.40;;
20462;SDS011;10390;53.566;9.980;2023-11-19T02:53:34;7.80;;;6.32;;
20462;SDS011;10390;53.566;9.980;2023-11-19T02:56:00;7.40;;;6.10;;
20462;SDS011;10390;53.566;9.980;2023-11-19T02:58:31;7.05;;;6.18;;
20462;SDS011;10390;53.566;9.980;2023-11-19T03:00:57;7.57;;;5.95;;
20462;SDS011;10390;53.566;9.980;2023-11-19T03:03:26;8.05;;;6.68;;
20462;SDS011;10390;53.566;9.980;2023-11-19T03:06:04;7.05;;;6.28;;
20462;SDS011;10390;53.566;9.980;2023-11-19T03:08:30;6.82;;;6.13;;
20462;SDS011;10390;53.566;9.980;2023-11-19T03:10:55;7.50;;;6.63;;
20462;SDS011;10390;53.566;9.980;2023-11-19T03:13:21;8.25;;;6.63;;
20462;SDS011;10390;53.566;9.980;2023-11-19T03:15:47;7.22;;;5.93;;
20462;SDS011;10390;53.566;9.980;2023-11-19T03:18:12;7.35;;;6.40;;
20462;SDS011;10390;53.566;9.980;2023-11-19T03:20:38;7.10;;;6.10;;
20462;SDS011;10390;53.566;9.980;2023-11-19T03:23:04;8.27;;;6.68;;
20462;SDS011;10390;53.566;9.980;2023-11-19T03:25:31;8.85;;;7.13;;
20462;SDS011;10390;53.566;9.980;2023-11-19T03:27:59;6.80;;;5.72;;
20462;SDS011;10390;53.566;9.980;2023-11-19T03:30:27;7.22;;;5.97;;
20462;SDS011;10390;53.566;9.980;2023-11-19T03:32:53;7.10;;;6.10;;
20462;SDS011;10390;53.566;9.980;2023-11-19T03:35:22;8.10;;;6.55;;
20462;SDS011;10390;53.566;9.980;2023-11-19T03:37:48;7.32;;;6.07;;
20462;SDS011;10390;53.566;9.980;2023-11-19T03:40:14;7.97;;;6.30;;
20462;SDS011;10390;53.566;9.980;2023-11-19T03:42:40;7.38;;;6.20;;
20462;SDS011;10390;53.566;9.980;2023-11-19T03:45:06;7.25;;;6.00;;
20462;SDS011;10390;53.566;9.980;2023-11-19T03:47:34;7.97;;;6.53;;
20462;SDS011;10390;53.566;9.980;2023-11-19T03:49:59;7.22;;;5.90;;
20462;SDS011;10390;53.566;9.980;2023-11-19T03:52:25;6.80;;;5.80;;
20462;SDS011;10390;53.566;9.980;2023-11-19T03:54:52;7.43;;;6.40;;
20462;SDS011;10390;53.566;9.980;2023-11-19T03:57:19;6.75;;;5.60;;
20462;SDS011;10390;53.566;9.980;2023-11-19T03:59:45;7.03;;;6.15;;
20462;SDS011;10390;53.566;9.980;2023-11-19T04:02:10;7.40;;;6.60;;
20462;SDS011;10390;53.566;9.980;2023-11-19T04:04:36;7.20;;;6.10;;
20462;SDS011;10390;53.566;9.980;2023-11-19T04:07:03;6.82;;;6.13;;
20462;SDS011;10390;53.566;9.980;2023-11-19T04:09:30;7.70;;;6.25;;
20462;SDS011;10390;53.566;9.980;2023-11-19T04:11:57;7.18;;;6.03;;
20462;SDS011;10390;53.566;9.980;2023-11-19T04:14:24;7.32;;;6.32;;
20462;SDS011;10390;53.566;9.980;2023-11-19T04:16:50;7.13;;;6.13;;
20462;SDS011;10390;53.566;9.980;2023-11-19T04:19:16;7.30;;;6.30;;
20462;SDS011;10390;53.566;9.980;2023-11-19T04:21:42;7.13;;;6.13;;
20462;SDS011;10390;53.566;9.980;2023-11-19T04:24:11;7.93;;;6.03;;
20462;SDS011;10390;53.566;9.980;2023-11-19T04:26:41;7.55;;;5.93;;
20462;SDS011;10390;53.566;9.980;2023-11-19T04:29:14;6.72;;;5.95;;
20462;SDS011;10390;53.566;9.980;2023-11-19T04:31:44;7.63;;;6.68;;
20462;SDS011;10390;53.566;9.980;2023-11-19T04:34:10;7.90;;;6.63;;
20462;SDS011;10390;53.566;9.980;2023-11-19T04:36:36;7.68;;;6.57;;
20462;SDS011;10390;53.566;9.980;2023-11-19T04:39:02;7.20;;;6.25;;
20462;SDS011;10390;53.566;9.980;2023-11-19T04:41:34;8.07;;;6.65;;
20462;SDS011;10390;53.566;9.980;2023-11-19T04:44:00;7.03;;;6.32;;
20462;SDS011;10390;53.566;9.980;2023-11-19T04:46:26;7.18;;;6.22;;
20462;SDS011;10390;53.566;9.980;2023-11-19T04:48:52;7.80;;;6.60;;
20462;SDS011;10390;53.566;9.980;2023-11-19T04:51:17;7.30;;;6.28;;
20462;SDS011;10390;53.566;9.980;2023-11-19T04:53:43;7.40;;;6.22;;
20462;SDS011;10390;53.566;9.980;2023-11-19T04:56:09;7.18;;;6.35;;
20462;SDS011;10390;53.566;9.980;2023-11-19T04:58:38;7.35;;;5.82;;
20462;SDS011;10390;53.566;9.980;2023-11-19T05:01:04;6.85;;;5.85;;
20462;SDS011;10390;53.566;9.980;2023-11-19T05:03:33;7.25;;;6.35;;
20462;SDS011;10390;53.566;9.980;2023-11-19T05:05:58;7.55;;;6.28;;
20462;SDS011;10390;53.566;9.980;2023-11-19T05:08:24;8.30;;;6.40;;
20462;SDS011;10390;53.566;9.980;2023-11-19T05:10:50;8.65;;;6.57;;
20462;SDS011;10390;53.566;9.980;2023-11-19T05:13:15;7.45;;;6.03;;
20462;SDS011;10390;53.566;9.980;2023-11-19T05:15:42;7.15;;;6.20;;
20462;SDS011;10390;53.566;9.980;2023-11-19T05:18:07;6.68;;;5.95;;
20462;SDS011;10390;53.566;9.980;2023-11-19T05:20:33;7.68;;;6.38;;
20462;SDS011;10390;53.566;9.980;2023-11-19T05:22:59;6.90;;;5.70;;
20462;SDS011;10390;53.566;9.980;2023-11-19T05:25:27;7.43;;;6.05;;
20462;SDS011;10390;53.566;9.980;2023-11-19T05:27:53;7.20;;;6.22;;
20462;SDS011;10390;53.566;9.980;2023-11-19T05:30:19;6.63;;;5.80;;
20462;SDS011;10390;53.566;9.980;2023-11-19T05:32:44;7.00;;;6.00;;
20462;SDS011;10390;53.566;9.980;2023-11-19T05:35:10;7.50;;;6.47;;
20462;SDS011;10390;53.566;9.980;2023-11-19T05:37:36;7.53;;;6.28;;
20462;SDS011;10390;53.566;9.980;2023-11-19T05:40:02;6.32;;;5.68;;
20462;SDS011;10390;53.566;9.980;2023-11-19T05:42:31;6.50;;;5.78;;
20462;SDS011;10390;53.566;9.980;2023-11-19T05:44:56;7.18;;;5.90;;
20462;SDS011;10390;53.566;9.980;2023-11-19T05:47:22;6.65;;;5.45;;
20462;SDS011;10390;53.566;9.980;2023-11-19T05:49:48;7.15;;;6.07;;
20462;SDS011;10390;53.566;9.980;2023-11-19T05:52:14;7.82;;;6.20;;
20462;SDS011;10390;53.566;9.980;2023-11-19T05:54:39;7.55;;;6.47;;
20462;SDS011;10390;53.566;9.980;2023-11-19T05:57:06;6.75;;;5.82;;
20462;SDS011;10390;53.566;9.980;2023-11-19T05:59:34;7.32;;;5.90;;
20462;SDS011;10390;53.566;9.980;2023-11-19T06:02:01;7.47;;;5.80;;
20462;SDS011;10390;53.566;9.980;2023-11-19T06:04:27;6.72;;;5.43;;
20462;SDS011;10390;53.566;9.980;2023-11-19T06:06:53;8.18;;;6.38;;
20462;SDS011;10390;53.566;9.980;2023-11-19T06:09:20;6.93;;;5.60;;
20462;SDS011;10390;53.566;9.980;2023-11-19T06:11:48;7.40;;;6.30;;
20462;SDS011;10390;53.566;9.980;2023-11-19T06:14:15;9.07;;;5.80;;
20462;SDS011;10390;53.566;9.980;2023-11-19T06:16:41;6.90;;;6.05;;
20462;SDS011;10390;53.566;9.980;2023-11-19T06:19:07;7.78;;;5.70;;
20462;SDS011;10390;53.566;9.980;2023-11-19T06:21:33;8.40;;;5.97;;
20462;SDS011;10390;53.566;9.980;2023-11-19T06:24:00;8.90;;;5.97;;
20462;SDS011;10390;53.566;9.980;2023-11-19T06:26:26;7.88;;;6.03;;
20462;SDS011;10390;53.566;9.980;2023-11-19T06:28:52;8.40;;;6.22;;
20462;SDS011;10390;53.566;9.980;2023-11-19T06:31:18;7.15;;;5.93;;
20462;SDS011;10390;53.566;9.980;2023-11-19T06:33:43;7.32;;;6.03;;
20462;SDS011;10390;53.566;9.980;2023-11-19T06:36:09;7.78;;;6.20;;
20462;SDS011;10390;53.566;9.980;2023-11-19T06:38:35;7.97;;;6.20;;
20462;SDS011;10390;53.566;9.980;2023-11-19T06:41:00;7.35;;;6.10;;
20462;SDS011;10390;53.566;9.980;2023-11-19T06:43:26;6.65;;;5.93;;
20462;SDS011;10390;53.566;9.980;2023-11-19T06:45:53;9.13;;;6.40;;
20462;SDS011;10390;53.566;9.980;2023-11-19T06:48:19;8.25;;;6.13;;
20462;SDS011;10390;53.566;9.980;2023-11-19T06:50:45;8.07;;;6.10;;
20462;SDS011;10390;53.566;9.980;2023-11-19T06:53:10;8.23;;;6.63;;
20462;SDS011;10390;53.566;9.980;2023-11-19T06:55:36;7.03;;;5.82;;
20462;SDS011;10390;53.566;9.980;2023-11-19T06:58:02;9.52;;;6.35;;
20462;SDS011;10390;53.566;9.980;2023-11-19T07:00:28;8.60;;;5.82;;
20462;SDS011;10390;53.566;9.980;2023-11-19T07:02:54;8.40;;;6.10;;
20462;SDS011;10390;53.566;9.980;2023-11-19T07:05:20;7.88;;;5.93;;
20462;SDS011;10390;53.566;9.980;2023-11-19T07:07:46;8.27;;;5.95;;
20462;SDS011;10390;53.566;9.980;2023-11-19T07:10:12;7.97;;;5.90;;
20462;SDS011;10390;53.566;9.980;2023-11-19T07:12:38;8.10;;;5.80;;
20462;SDS011;10390;53.566;9.980;2023-11-19T07:15:03;8.05;;;5.82;;
20462;SDS011;10390;53.566;9.980;2023-11-19T07:17:30;9.57;;;6.25;;
20462;SDS011;10390;53.566;9.980;2023-11-19T07:19:56;10.05;;;6.50;;
20462;SDS011;10390;53.566;9.980;2023-11-19T07:22:24;7.80;;;5.70;;
20462;SDS011;10390;53.566;9.980;2023-11-19T07:24:50;9.23;;;5.97;;
20462;SDS011;10390;53.566;9.980;2023-11-19T07:27:18;9.25;;;6.13;;
20462;SDS011;10390;53.566;9.980;2023-11-19T07:29:44;7.45;;;6.25;;
20462;SDS011;10390;53.566;9.980;2023-11-19T07:32:10;8.63;;;5.90;;
20462;SDS011;10390;53.566;9.980;2023-11-19T07:34:35;8.52;;;6.07;;
20462;SDS011;10390;53.566;9.980;2023-11-19T07:37:01;7.32;;;5.60;;
20462;SDS011;10390;53.566;9.980;2023-11-19T07:39:29;11.52;;;6.32;;
20462;SDS011;10390;53.566;9.980;2023-11-19T07:41:54;7.82;;;6.30;;
20462;SDS011;10390;53.566;9.980;2023-11-19T07:44:20;8.68;;;6.03;;
20462;SDS011;10390;53.566;9.980;2023-11-19T07:46:46;8.80;;;6.28;;
20462;SDS011;10390;53.566;9.980;2023-11-19T07:49:13;9.65;;;6.10;;
20462;SDS011;10390;53.566;9.980;2023-11-19T07:51:39;7.75;;;6.00;;
20462;SDS011;10390;53.566;9.980;2023-11-19T07:54:05;8.25;;;5.97;;
20462;SDS011;10390;53.566;9.980;2023-11-19T07:56:34;7.68;;;5.63;;
20462;SDS011;10390;53.566;9.980;2023-11-19T07:59:00;8.90;;;6.28;;
20462;SDS011;10390;53.566;9.980;2023-11-19T08:01:29;7.40;;;5.85;;
20462;SDS011;10390;53.566;9.980;2023-11-19T08:03:54;8.43;;;6.13;;
20462;SDS011;10390;53.566;9.980;2023-11-19T08:06:20;8.95;;;6.30;;
20462;SDS011;10390;53.566;9.980;2023-11-19T08:08:46;10.85;;;6.13;;
20462;SDS011;10390;53.566;9.980;2023-11-19T08:11:13;12.30;;;5.78;;
20462;SDS011;10390;53.566;9.980;2023-11-19T08:13:38;12.52;;;6.38;;
20462;SDS011;10390;53.566;9.980;2023-11-19T08:16:04;9.60;;;6.63;;
20462;SDS011;10390;53.566;9.980;2023-11-19T08:18:30;18.67;;;6.80;;
20462;SDS011;10390;53.566;9.980;2023-11-19T08:20:56;22.85;;;7.53;;
20462;SDS011;10390;53.566;9.980;2023-11-19T08:23:23;20.65;;;7.60;;
20462;SDS011;10390;53.566;9.980;2023-11-19T08:25:50;22.15;;;9.02;;
20462;SDS011;10390;53.566;9.980;2023-11-19T08:28:16;21.35;;;7.68;;
20462;SDS011;10390;53.566;9.980;2023-11-19T08:30:42;21.80;;;8.25;;
20462;SDS011;10390;53.566;9.980;2023-11-19T08:33:09;19.55;;;8.80;;
20462;SDS011;10390;53.566;9.980;2023-11-19T08:35:35;17.77;;;9.57;;
20462;SDS011;10390;53.566;9.980;2023-11-19T08:38:00;24.08;;;9.85;;
20462;SDS011;10390;53.566;9.980;2023-11-19T08:40:26;29.00;;;9.90;;
20462;SDS011;10390;53.566;9.980;2023-11-19T08:42:52;17.75;;;9.45;;
20462;SDS011;10390;53.566;9.980;2023-11-19T08:45:18;22.10;;;9.40;;
20462;SDS011;10390;53.566;9.980;2023-11-19T08:47:44;20.15;;;10.18;;
20462;SDS011;10390;53.566;9.980;2023-11-19T08:50:10;21.13;;;8.88;;
20462;SDS011;10390;53.566;9.980;2023-11-19T08:52:36;23.23;;;10.32;;
20462;SDS011;10390;53.566;9.980;2023-11-19T08:55:02;26.13;;;9.38;;
20462;SDS011;10390;53.566;9.980;2023-11-19T08:57:30;15.95;;;9.35;;
20462;SDS011;10390;53.566;9.980;2023-11-19T08:59:56;16.50;;;9.85;;
20462;SDS011;10390;53.566;9.980;2023-11-19T09:02:22;20.05;;;9.48;;
20462;SDS011;10390;53.566;9.980;2023-11-19T09:04:47;16.20;;;8.48;;
20462;SDS011;10390;53.566;9.980;2023-11-19T09:07:13;20.08;;;8.93;;
20462;SDS011;10390;53.566;9.980;2023-11-19T09:09:38;13.98;;;8.57;;
20462;SDS011;10390;53.566;9.980;2023-11-19T09:12:04;16.58;;;8.55;;
20462;SDS011;10390;53.566;9.980;2023-11-19T09:14:30;14.25;;;8.32;;
20462;SDS011;10390;53.566;9.980;2023-11-19T09:16:56;16.15;;;8.52;;
20462;SDS011;10390;53.566;9.980;2023-11-19T09:19:23;16.65;;;8.73;;
20462;SDS011;10390;53.566;9.980;2023-11-19T09:21:49;17.08;;;8.63;;
20462;SDS011;10390;53.566;9.980;2023-11-19T09:24:15;15.73;;;9.18;;
20462;SDS011;10390;53.566;9.980;2023-11-19T09:26:40;16.95;;;8.88;;
20462;SDS011;10390;53.566;9.980;2023-11-19T09:29:10;13.95;;;8.10;;
20462;SDS011;10390;53.566;9.980;2023-11-19T09:31:37;12.20;;;8.07;;
20462;SDS011;10390;53.566;9.980;2023-11-19T09:34:03;13.88;;;8.45;;
20462;SDS011;10390;53.566;9.980;2023-11-19T09:36:29;17.30;;;8.63;;
20462;SDS011;10390;53.566;9.980;2023-11-19T09:38:55;13.80;;;8.48;;
20462;SDS011;10390;53.566;9.980;2023-11-19T09:41:20;13.63;;;8.25;;
20462;SDS011;10390;53.566;9.980;2023-11-19T09:43:46;11.63;;;7.70;;
20462;SDS011;10390;53.566;9.980;2023-11-19T09:46:12;12.55;;;8.07;;
20462;SDS011;10390;53.566;9.980;2023-11-19T09:48:40;12.98;;;8.40;;
20462;SDS011;10390;53.566;9.980;2023-11-19T09:51:07;14.50;;;8.40;;
20462;SDS011;10390;53.566;9.980;2023-11-19T09:53:35;15.80;;;8.50;;
20462;SDS011;10390;53.566;9.980;2023-11-19T09:56:02;15.50;;;8.85;;
20462;SDS011;10390;53.566;9.980;2023-11-19T09:58:31;17.63;;;9.25;;
20462;SDS011;10390;53.566;9.980;2023-11-19T10:00:59;12.68;;;8.30;;
20462;SDS011;10390;53.566;9.980;2023-11-19T10:03:31;16.20;;;9.18;;
20462;SDS011;10390;53.566;9.980;2023-11-19T10:06:07;14.35;;;8.10;;
20462;SDS011;10390;53.566;9.980;2023-11-19T10:08:34;13.23;;;7.57;;
20462;SDS011;10390;53.566;9.980;2023-11-19T10:11:04;13.88;;;8.38;;
20462;SDS011;10390;53.566;9.980;2023-11-19T10:13:31;13.68;;;7.32;;
20462;SDS011;10390;53.566;9.980;2023-11-19T10:15:59;14.55;;;8.07;;
20462;SDS011;10390;53.566;9.980;2023-11-19T10:18:38;12.93;;;7.55;;
20462;SDS011;10390;53.566;9.980;2023-11-19T10:21:11;16.63;;;7.78;;
20462;SDS011;10390;53.566;9.980;2023-11-19T10:23:48;17.65;;;8.40;;
20462;SDS011;10390;53.566;9.980;2023-11-19T10:26:18;13.27;;;7.90;;
20462;SDS011;10390;53.566;9.980;2023-11-19T10:28:45;13.23;;;7.82;;
20462;SDS011;10390;53.566;9.980;2023-11-19T10:31:16;20.27;;;8.80;;
20462;SDS011;10390;53.566;9.980;2023-11-19T10:33:43;16.40;;;7.97;;
20462;SDS011;10390;53.566;9.980;2023-11-19T10:36:10;16.13;;;8.23;;
20462;SDS011;10390;53.566;9.980;2023-11-19T10:38:40;13.50;;;8.60;;
20462;SDS011;10390;53.566;9.980;2023-11-19T10:41:06;12.32;;;7.20;;
20462;SDS011;10390;53.566;9.980;2023-11-19T10:43:42;14.38;;;8.35;;
20462;SDS011;10390;53.566;9.980;2023-11-19T10:46:11;15.00;;;8.75;;
20462;SDS011;10390;53.566;9.980;2023-11-19T10:48:38;13.07;;;7.50;;
20462;SDS011;10390;53.566;9.980;2023-11-19T10:51:05;15.20;;;8.70;;
20462;SDS011;10390;53.566;9.980;2023-11-19T10:53:36;14.20;;;8.20;;
20462;SDS011;10390;53.566;9.980;2023-11-19T10:56:06;14.30;;;7.72;;
20462;SDS011;10390;53.566;9.980;2023-11-19T10:58:35;10.48;;;7.57;;
20462;SDS011;10390;53.566;9.980;2023-11-19T11:01:09;12.57;;;8.10;;
20462;SDS011;10390;53.566;9.980;2023-11-19T11:03:41;17.85;;;8.85;;
20462;SDS011;10390;53.566;9.980;2023-11-19T11:06:08;12.15;;;8.60;;
20462;SDS011;10390;53.566;9.980;2023-11-19T11:08:35;14.43;;;7.97;;
20462;SDS011;10390;53.566;9.980;2023-11-19T11:11:02;15.02;;;8.18;;
20462;SDS011;10390;53.566;9.980;2023-11-19T11:13:29;13.60;;;8.15;;
20462;SDS011;10390;53.566;9.980;2023-11-19T11:15:57;14.20;;;8.35;;
20462;SDS011;10390;53.566;9.980;2023-11-19T11:18:23;14.20;;;7.40;;
20462;SDS011;10390;53.566;9.980;2023-11-19T11:20:54;14.05;;;8.02;;
20462;SDS011;10390;53.566;9.980;2023-11-19T11:29:16;16.17;;;8.60;;
20462;SDS011;10390;53.566;9.980;2023-11-19T11:37:32;25.27;;;8.60;;
20462;SDS011;10390;53.566;9.980;2023-11-19T11:40:02;28.63;;;9.65;;
20462;SDS011;10390;53.566;9.980;2023-11-19T11:42:35;20.63;;;9.95;;
20462;SDS011;10390;53.566;9.980;2023-11-19T11:57:53;35.15;;;10.52;;
20462;SDS011;10390;53.566;9.980;2023-11-19T12:00:33;33.20;;;9.70;;
20462;SDS011;10390;53.566;9.980;2023-11-19T12:03:04;31.02;;;9.10;;
20462;SDS011;10390;53.566;9.980;2023-11-19T12:05:30;28.48;;;9.93;;
20462;SDS011;10390;53.566;9.980;2023-11-19T12:08:03;23.35;;;9.15;;
20462;SDS011;10390;53.566;9.980;2023-11-19T12:10:32;30.00;;;9.20;;
20462;SDS011;10390;53.566;9.980;2023-11-19T12:13:02;20.45;;;8.75;;
20462;SDS011;10390;53.566;9.980;2023-11-19T12:15:32;28.92;;;9.65;;
20462;SDS011;10390;53.566;9.980;2023-11-19T12:17:58;24.35;;;9.63;;
20462;SDS011;10390;53.566;9.980;2023-11-19T12:20:24;20.48;;;8.90;;
20462;SDS011;10390;53.566;9.980;2023-11-19T12:22:51;21.88;;;8.43;;
20462;SDS011;10390;53.566;9.980;2023-11-19T12:25:18;23.52;;;9.13;;
20462;SDS011;10390;53.566;9.980;2023-11-19T12:27:47;21.40;;;9.43;;
20462;SDS011;10390;53.566;9.980;2023-11-19T12:30:24;18.52;;;7.93;;
20462;SDS011;10390;53.566;9.980;2023-11-19T12:32:50;17.23;;;8.65;;
20462;SDS011;10390;53.566;9.980;2023-11-19T12:35:21;15.45;;;7.75;;
20462;SDS011;10390;53.566;9.980;2023-11-19T12:37:47;17.85;;;8.57;;
20462;SDS011;10390;53.566;9.980;2023-11-19T12:40:18;16.40;;;7.68;;
20462;SDS011;10390;53.566;9.980;2023-11-19T12:42:48;17.20;;;8.57;;
20462;SDS011;10390;53.566;9.980;2023-11-19T12:45:15;19.05;;;9.05;;
20462;SDS011;10390;53.566;9.980;2023-11-19T12:47:44;17.17;;;8.95;;
20462;SDS011;10390;53.566;9.980;2023-11-19T12:50:12;15.38;;;8.68;;
20462;SDS011;10390;53.566;9.980;2023-11-19T12:52:38;18.75;;;8.23;;
20462;SDS011;10390;53.566;9.980;2023-11-19T12:55:05;18.42;;;8.35;;
20462;SDS011;10390;53.566;9.980;2023-11-19T12:57:48;20.58;;;9.13;;
20462;SDS011;10390;53.566;9.980;2023-11-19T13:00:21;20.63;;;8.40;;
20462;SDS011;10390;53.566;9.980;2023-11-19T13:02:49;15.32;;;8.52;;
20462;SDS011;10390;53.566;9.980;2023-11-19T13:05:20;16.55;;;8.52;;
20462;SDS011;10390;53.566;9.980;2023-11-19T13:07:46;17.67;;;8.93;;
20462;SDS011;10390;53.566;9.980;2023-11-19T13:10:12;14.93;;;8.25;;
20462;SDS011;10390;53.566;9.980;2023-11-19T13:12:38;16.00;;;8.90;;
20462;SDS011;10390;53.566;9.980;2023-11-19T13:15:04;20.25;;;8.82;;
20462;SDS011;10390;53.566;9.980;2023-11-19T13:17:30;14.93;;;8.63;;
20462;SDS011;10390;53.566;9.980;2023-11-19T13:19:56;14.13;;;8.25;;
20462;SDS011;10390;53.566;9.980;2023-11-19T13:22:22;16.40;;;9.15;;
20462;SDS011;10390;53.566;9.980;2023-11-19T13:24:48;17.80;;;8.82;;
20462;SDS011;10390;53.566;9.980;2023-11-19T13:27:13;16.20;;;9.02;;
20462;SDS011;10390;53.566;9.980;2023-11-19T13:29:39;15.18;;;8.80;;
20462;SDS011;10390;53.566;9.980;2023-11-19T13:32:05;15.15;;;9.32;;
20462;SDS011;10390;53.566;9.980;2023-11-19T13:34:30;14.07;;;9.70;;
20462;SDS011;10390;53.566;9.980;2023-11-19T13:36:56;13.65;;;8.57;;
20462;SDS011;10390;53.566;9.980;2023-11-19T13:39:22;14.10;;;8.43;;
20462;SDS011;10390;53.566;9.980;2023-11-19T13:41:48;13.05;;;8.63;;
20462;SDS011;10390;53.566;9.980;2023-11-19T13:44:15;14.95;;;8.40;;
20462;SDS011;10390;53.566;9.980;2023-11-19T13:46:44;19.88;;;9.25;;
20462;SDS011;10390;53.566;9.980;2023-11-19T13:49:11;15.02;;;8.73;;
20462;SDS011;10390;53.566;9.980;2023-11-19T13:51:36;14.70;;;8.20;;
20462;SDS011;10390;53.566;9.980;2023-11-19T13:54:02;16.45;;;9.02;;
20462;SDS011;10390;53.566;9.980;2023-11-19T13:56:28;18.17;;;9.00;;
20462;SDS011;10390;53.566;9.980;2023-11-19T13:58:53;16.75;;;9.18;;
20462;SDS011;10390;53.566;9.980;2023-11-19T14:01:19;18.70;;;9.95;;
20462;SDS011;10390;53.566;9.980;2023-11-19T14:03:44;18.58;;;9.55;;
20462;SDS011;10390;53.566;9.980;2023-11-19T14:06:10;16.80;;;10.05;;
20462;SDS011;10390;53.566;9.980;2023-11-19T14:08:37;19.80;;;10.02;;
20462;SDS011;10390;53.566;9.980;2023-11-19T14:11:03;18.00;;;9.68;;
20462;SDS011;10390;53.566;9.980;2023-11-19T14:13:29;18.15;;;10.15;;
20462;SDS011;10390;53.566;9.980;2023-11-19T14:15:55;17.92;;;9.95;;
20462;SDS011;10390;53.566;9.980;2023-11-19T14:18:21;24.40;;;10.45;;
20462;SDS011;10390;53.566;9.980;2023-11-19T14:20:48;16.30;;;9.18;;
20462;SDS011;10390;53.566;9.980;2023-11-19T14:23:13;16.70;;;9.55;;
20462;SDS011;10390;53.566;9.980;2023-11-19T14:25:39;14.02;;;9.20;;
20462;SDS011;10390;53.566;9.980;2023-11-19T14:28:04;19.33;;;9.45;;
20462;SDS011;10390;53.566;9.980;2023-11-19T14:30:30;17.35;;;10.18;;
20462;SDS011;10390;53.566;9.980;2023-11-19T14:32:56;17.52;;;9.52;;
20462;SDS011;10390;53.566;9.980;2023-11-19T14:35:21;15.25;;;9.07;;
20462;SDS011;10390;53.566;9.980;2023-11-19T14:37:47;16.30;;;9.38;;
20462;SDS011;10390;53.566;9.980;2023-11-19T14:40:13;17.60;;;9.55;;
20462;SDS011;10390;53.566;9.980;2023-11-19T14:42:39;17.63;;;9.80;;
20462;SDS011;10390;53.566;9.980;2023-11-19T14:45:05;17.23;;;10.15;;
20462;SDS011;10390;53.566;9.980;2023-11-19T14:47:32;15.98;;;9.60;;
20462;SDS011;10390;53.566;9.980;2023-11-19T14:49:57;17.75;;;9.80;;
20462;SDS011;10390;53.566;9.980;2023-11-19T14:52:23;16.98;;;9.15;;
20462;SDS011;10390;53.566;9.980;2023-11-19T14:54:48;20.48;;;10.27;;
20462;SDS011;10390;53.566;9.980;2023-11-19T14:57:16;20.15;;;9.30;;
20462;SDS011;10390;53.566;9.980;2023-11-19T14:59:42;22.00;;;10.20;;
20462;SDS011;10390;53.566;9.980;2023-11-19T15:02:07;21.63;;;10.15;;
20462;SDS011;10390;53.566;9.980;2023-11-19T15:04:33;24.33;;;10.60;;